Aviation Digital Data Service (ADDS)

Output produced by METARs form (1624 UTC 22 June 2017)
found at http://aviationweather.gov/adds/metars/
 
KJXN 221459Z 2215/2312 24010G18KT P6SM SCT100 
     FM230500 21013KT 5SM -SHRA BR VCTS OVC015CB